createdAt,value
2022-08-05T00:02:55.170Z,101184.09
2022-08-05T00:08:00.301Z,101183.31
2022-08-05T00:13:04.151Z,101198.38
2022-08-05T00:18:21.393Z,101191.97
2022-08-05T00:34:55.132Z,101213.66
2022-08-05T00:39:37.006Z,101225.22
2022-08-05T00:44:44.551Z,101236.44
2022-08-05T00:49:52.574Z,101266.53
2022-08-05T00:54:56.117Z,101286.59
2022-08-05T00:59:58.996Z,101303.88
2022-08-05T01:05:10.138Z,101286.69
2022-08-05T01:10:16.067Z,101300.94
2022-08-05T01:20:55.004Z,101294.81
2022-08-05T01:26:14.544Z,101286.25
2022-08-05T01:31:27.459Z,101278.72
2022-08-05T01:36:33.917Z,101264.00
2022-08-05T01:41:38.607Z,101260.41
2022-08-05T01:46:54.982Z,101262.88
2022-08-05T01:52:17.363Z,101249.78
2022-08-05T01:58:10.299Z,101246.50
2022-08-05T02:02:59.093Z,101234.81
2022-08-05T02:08:02.234Z,101241.78
2022-08-05T02:13:15.697Z,101245.41
2022-08-05T02:18:34.362Z,101245.16
2022-08-05T02:23:41.382Z,101244.63
2022-08-05T02:28:46.820Z,101249.09
2022-08-05T02:34:02.423Z,101259.12
2022-08-05T02:39:08.996Z,101265.25
2022-08-05T02:44:13.739Z,101252.47
2022-08-05T02:49:22.774Z,101245.28
2022-08-05T02:54:35.828Z,101241.41
2022-08-05T03:05:00.041Z,101219.44
2022-08-05T03:10:02.869Z,101229.53
2022-08-05T03:15:07.729Z,101212.03
2022-08-05T03:20:17.817Z,101221.78
2022-08-05T03:25:32.860Z,101210.97
2022-08-05T03:30:45.994Z,101216.22
2022-08-05T03:35:56.948Z,101248.50
2022-08-05T03:40:59.927Z,101229.91
2022-08-05T03:46:08.227Z,101251.31
2022-08-05T03:52:48.402Z,101252.72
2022-08-05T03:56:47.583Z,101261.88
2022-08-05T04:01:58.999Z,101261.66
2022-08-05T04:07:08.923Z,101240.50
2022-08-05T04:12:24.570Z,101235.00
2022-08-05T04:17:55.910Z,101224.47
2022-08-05T04:22:56.377Z,101229.47
2022-08-05T04:28:03.940Z,101228.38
2022-08-05T04:33:13.946Z,101199.22
2022-08-05T04:38:22.435Z,101211.16
2022-08-05T04:43:46.671Z,101221.72
2022-08-05T04:48:54.807Z,101208.16
2022-08-05T04:54:03.254Z,101210.91
2022-08-05T04:59:22.093Z,101185.13
2022-08-05T05:04:28.881Z,101189.00
2022-08-05T05:09:37.253Z,101242.25
2022-08-05T05:14:49.186Z,101261.38
2022-08-05T05:19:54.728Z,101271.66
2022-08-05T05:25:14.813Z,101246.13
2022-08-05T05:30:30.576Z,101232.00
2022-08-05T05:35:37.883Z,101205.91
2022-08-05T05:40:51.221Z,101223.94
2022-08-05T05:45:54.326Z,101243.91
2022-08-05T05:50:57.087Z,101237.81
2022-08-05T05:56:05.673Z,101249.16
2022-08-05T06:11:59.259Z,101284.41
2022-08-05T06:17:22.333Z,101304.91
2022-08-05T06:22:28.918Z,101325.97
2022-08-05T06:28:10.501Z,101344.81
2022-08-05T06:32:59.720Z,101374.75
2022-08-05T06:38:11.312Z,101408.03
2022-08-05T06:48:55.785Z,101441.00
2022-08-05T06:54:02.702Z,101469.28
2022-08-05T06:59:09.632Z,101471.47
2022-08-05T07:04:19.266Z,101465.06
2022-08-05T07:09:24.880Z,101426.00
2022-08-05T07:14:29.437Z,101410.75
2022-08-05T07:30:28.229Z,101430.28
2022-08-05T07:36:04.849Z,101408.06
2022-08-05T07:41:01.449Z,101403.91
2022-08-05T07:46:26.019Z,101413.09
2022-08-05T07:51:36.982Z,101396.72
2022-08-05T07:57:02.295Z,101405.34
2022-08-05T08:02:16.268Z,101402.59
2022-08-05T08:07:22.471Z,101392.09
2022-08-05T08:12:33.508Z,101387.38
2022-08-05T08:17:52.673Z,101385.47
2022-08-05T08:22:57.968Z,101375.19
2022-08-05T08:28:00.757Z,101413.22
2022-08-05T08:33:14.485Z,101413.25
2022-08-05T08:38:17.316Z,101406.84
2022-08-05T08:45:23.703Z,101414.06
2022-08-05T08:50:13.032Z,101424.06
2022-08-05T08:54:31.878Z,101426.56
2022-08-05T08:59:35.091Z,101406.03
2022-08-05T09:04:58.578Z,101409.09
2022-08-05T09:10:07.541Z,101420.44
2022-08-05T09:15:11.827Z,101427.41
2022-08-05T09:26:01.457Z,101402.16
2022-08-05T09:31:44.251Z,101393.78
2022-08-05T09:36:54.402Z,101404.34
2022-08-05T09:42:07.743Z,101409.03
2022-08-05T09:47:15.605Z,101410.37
2022-08-05T09:52:24.635Z,101405.94
2022-08-05T09:57:43.221Z,101403.37
2022-08-05T10:02:48.798Z,101401.94
2022-08-05T10:08:37.061Z,101400.22
2022-08-05T10:13:47.222Z,101388.22
2022-08-05T10:18:51.749Z,101371.44
2022-08-05T10:23:59.688Z,101372.81
2022-08-05T10:29:09.252Z,101384.78
2022-08-05T10:34:12.311Z,101383.66
2022-08-05T10:39:25.132Z,101403.41
2022-08-05T10:44:50.677Z,101393.13
2022-08-05T10:50:32.695Z,101376.97
2022-08-05T10:55:29.429Z,101396.16
2022-08-05T11:00:47.404Z,101384.44
2022-08-05T11:06:15.692Z,101394.91
2022-08-05T11:22:50.222Z,101398.88
2022-08-05T11:28:00.572Z,101401.72
2022-08-05T11:33:43.735Z,101392.56
2022-08-05T11:38:57.785Z,101398.38
2022-08-05T11:44:07.387Z,101405.31
2022-08-05T11:49:14.190Z,101398.06
2022-08-05T11:54:33.633Z,101404.19
2022-08-05T11:59:41.339Z,101411.41
2022-08-05T12:04:53.482Z,101411.72
2022-08-05T12:10:13.184Z,101418.69
2022-08-05T12:15:34.610Z,101428.78
2022-08-05T12:20:41.539Z,101427.97
2022-08-05T12:25:57.242Z,101437.47
2022-08-05T12:31:01.964Z,101435.56
2022-08-05T12:36:08.267Z,101456.75
2022-08-05T12:41:17.637Z,101454.06
2022-08-05T12:46:28.933Z,101458.88
2022-08-05T12:52:12.390Z,101468.13
2022-08-05T12:57:02.879Z,101459.53
2022-08-05T13:02:08.327Z,101453.75
2022-08-05T13:07:16.209Z,101466.81
2022-08-05T13:12:28.538Z,101474.34
2022-08-05T13:17:41.805Z,101471.00
2022-08-05T13:28:06.732Z,101480.75
2022-08-05T13:33:14.166Z,101499.38
2022-08-05T13:38:27.981Z,101498.00
2022-08-05T13:43:45.758Z,101504.09
2022-08-05T13:49:01.039Z,101502.16
2022-08-05T13:54:11.812Z,101507.69
2022-08-05T13:59:24.429Z,101525.16
2022-08-05T14:04:30.137Z,101513.47
2022-08-05T14:09:35.286Z,101509.28
2022-08-05T14:20:12.806Z,101536.69
2022-08-05T14:30:39.688Z,101540.12
2022-08-05T14:35:50.354Z,101541.41
2022-08-05T14:40:54.188Z,101558.25
2022-08-05T14:46:02.475Z,101561.19
2022-08-05T14:51:05.598Z,101556.97
2022-08-05T14:56:11.208Z,101567.94
2022-08-05T15:01:22.748Z,101574.22
2022-08-05T15:06:42.548Z,101578.84
2022-08-05T15:11:53.712Z,101582.84
2022-08-05T15:17:01.994Z,101608.22
2022-08-05T15:22:06.858Z,101617.19
2022-08-05T15:27:09.628Z,101629.41
2022-08-05T15:32:17.730Z,101649.50
2022-08-05T15:38:32.667Z,101644.75
2022-08-05T15:42:54.609Z,101647.47
2022-08-05T15:48:05.899Z,101656.63
2022-08-05T15:53:10.123Z,101656.81
2022-08-05T15:58:16.762Z,101655.47
2022-08-05T16:03:24.994Z,101665.50
2022-08-05T16:13:47.575Z,101655.09
2022-08-05T16:18:52.263Z,101671.94
2022-08-05T16:24:00.175Z,101669.34
2022-08-05T16:29:13.609Z,101660.72
2022-08-05T16:34:17.890Z,101662.91
2022-08-05T16:39:20.894Z,101668.66
2022-08-05T16:44:29.029Z,101691.59
2022-08-05T16:49:31.753Z,101699.03
2022-08-05T16:54:34.478Z,101702.84
2022-08-05T17:00:01.515Z,101719.34
2022-08-05T17:05:06.005Z,101731.91
2022-08-05T17:10:10.034Z,101742.72
2022-08-05T17:15:19.552Z,101755.69
2022-08-05T17:20:22.630Z,101748.63
2022-08-05T17:25:39.332Z,101740.22
2022-08-05T17:30:50.526Z,101750.66
2022-08-05T17:42:16.502Z,101740.56
2022-08-05T17:46:57.264Z,101744.53
2022-08-05T17:52:00.356Z,101735.91
2022-08-05T17:57:12.219Z,101746.78
2022-08-05T18:02:16.266Z,101744.63
2022-08-05T18:07:19.096Z,101755.78
2022-08-05T18:12:28.683Z,101753.38
2022-08-05T18:18:00.710Z,101754.84
2022-08-05T18:28:16.502Z,101760.25
2022-08-05T18:33:23.178Z,101772.84
2022-08-05T18:38:26.860Z,101782.31
2022-08-05T18:43:38.108Z,101778.84
2022-08-05T18:48:45.280Z,101784.91
2022-08-05T18:53:50.719Z,101799.47
2022-08-05T18:59:01.163Z,101810.81
2022-08-05T19:04:05.334Z,101810.09
2022-08-05T19:09:08.327Z,101817.59
2022-08-05T19:14:52.440Z,101815.78
2022-08-05T19:19:39.293Z,101829.41
2022-08-05T19:24:54.140Z,101844.13
2022-08-05T19:35:18.122Z,101852.03
2022-08-05T19:40:24.622Z,101860.00
2022-08-05T19:45:27.725Z,101866.41
2022-08-05T19:56:14.277Z,101854.91
2022-08-05T20:01:28.084Z,101867.34
2022-08-05T20:06:32.940Z,101866.94
2022-08-05T20:11:48.187Z,101866.56
2022-08-05T20:16:51.234Z,101870.84
2022-08-05T20:21:53.947Z,101864.13
2022-08-05T20:27:03.497Z,101870.31
2022-08-05T20:32:14.220Z,101875.22
2022-08-05T20:37:18.110Z,101876.72
2022-08-05T20:42:45.347Z,101873.56
2022-08-05T20:47:48.568Z,101885.03
2022-08-05T20:52:54.749Z,101894.81
2022-08-05T20:58:02.803Z,101894.87
2022-08-05T21:03:08.008Z,101890.87
2022-08-05T21:08:10.954Z,101885.00
2022-08-05T21:13:26.387Z,101889.03
2022-08-05T21:18:45.000Z,101889.03
2022-08-05T21:23:47.917Z,101892.22
2022-08-05T21:28:56.636Z,101899.25
2022-08-05T21:39:26.688Z,101913.00
2022-08-05T21:44:31.031Z,101922.81
2022-08-05T21:49:48.620Z,101921.56
2022-08-05T21:55:06.348Z,101922.03
2022-08-05T22:00:12.614Z,101917.84
2022-08-05T22:05:15.366Z,101911.09
2022-08-05T22:10:26.635Z,101904.34
2022-08-05T22:16:02.156Z,101911.34
2022-08-05T22:20:52.905Z,101905.47
2022-08-05T22:26:10.501Z,101906.97
2022-08-05T22:31:14.272Z,101911.84
2022-08-05T22:36:18.416Z,101914.19
2022-08-05T22:42:09.848Z,101912.50
2022-08-05T22:46:49.871Z,101924.13
2022-08-05T22:52:05.692Z,101925.16
2022-08-05T22:57:15.809Z,101922.00
2022-08-05T23:02:28.952Z,101932.75
2022-08-05T23:07:33.022Z,101939.09
2022-08-05T23:12:55.837Z,101952.41
2022-08-05T23:18:02.124Z,101959.59
2022-08-05T23:23:08.284Z,101957.69
2022-08-05T23:28:17.109Z,101961.50
2022-08-05T23:33:25.554Z,101960.44
2022-08-05T23:38:29.488Z,101974.62
2022-08-05T23:44:06.135Z,101981.19
2022-08-05T23:54:19.179Z,102002.53
2022-08-05T23:59:37.561Z,102017.81
